Time;durP1;ratioP1;P1;durP2;ratioP2;P2;SDS_P1;SDS_P2;PMS_P1;PMS_P2;Temp;Humidity;BMP_temperature;BMP_pressure;BME280_temperature;BME280_humidity;BME280_pressure;Samples;Min_cycle;Max_cycle;Signal;HPM_P1;HPM_P2
2022/05/15 00:02:20;;;;;;;;;10.00;7.33;;;;;20.15;41.61;101254.81;5101999;27;45658;-74
2022/05/15 00:04:46;;;;;;;;;8.67;7.00;;;;;20.05;41.60;101238.13;5117774;27;45314;-72
2022/05/15 00:07:12;;;;;;;;;8.00;7.33;;;;;20.26;41.67;101262.41;5118395;27;45433;-72
2022/05/15 00:09:37;;;;;;;;;10.67;7.00;;;;;20.26;41.39;101257.00;5100315;27;45559;-74
2022/05/15 00:12:05;;;;;;;;;8.67;6.00;;;;;20.05;41.52;101228.16;5110625;27;45766;-71
2022/05/15 00:14:32;;;;;;;;;7.33;5.33;;;;;20.24;41.48;101259.06;5097288;27;45406;-72
2022/05/15 00:16:58;;;;;;;;;8.33;8.33;;;;;19.62;41.69;101150.94;5083184;27;45530;-72
2022/05/15 00:19:23;;;;;;;;;5.00;5.00;;;;;19.74;41.73;101177.22;5096166;27;45283;-72
2022/05/15 00:21:49;;;;;;;;;7.00;5.33;;;;;19.81;41.77;101188.06;5107221;27;45921;-71
2022/05/15 00:24:14;;;;;;;;;5.00;5.00;;;;;20.01;41.83;101205.25;5105715;27;45686;-73
2022/05/15 00:26:40;;;;;;;;;6.00;6.00;;;;;19.41;41.46;101100.50;5102331;27;45463;-72
2022/05/15 00:29:05;;;;;;;;;6.00;6.00;;;;;20.22;41.69;101244.91;5103474;27;45434;-74
2022/05/15 00:31:30;;;;;;;;;4.33;4.33;;;;;20.19;41.77;101239.06;5079902;27;48453;-72
2022/05/15 00:33:56;;;;;;;;;6.00;4.00;;;;;20.02;41.83;101219.59;5081568;27;45341;-70
2022/05/15 00:36:21;;;;;;;;;8.00;5.00;;;;;20.12;42.02;101233.59;5084427;27;45535;-73
2022/05/15 00:38:47;;;;;;;;;6.33;5.00;;;;;20.05;41.51;101235.41;5087707;27;46434;-73
2022/05/15 00:41:13;;;;;;;;;6.00;4.67;;;;;20.00;41.91;101227.88;5098461;27;45357;-70
2022/05/15 00:43:50;;;;;;;;;4.33;4.33;;;;;19.99;41.79;101241.56;5101256;27;47021;-71
2022/05/15 00:46:26;;;;;;;;;7.67;4.00;;;;;19.91;42.13;101230.91;5099833;27;45232;-71
2022/05/15 00:48:53;;;;;;;;;3.00;3.00;;;;;19.82;42.27;101218.56;5092936;27;45276;-72
2022/05/15 00:51:40;;;;;;;;;4.00;4.00;;;;;19.79;42.34;101237.84;5087301;27;46718;-73
2022/05/15 00:54:17;;;;;;;;;5.00;5.00;;;;;19.56;42.75;101201.09;5097442;27;45460;-74
2022/05/15 00:56:48;;;;;;;;;6.67;4.33;;;;;19.55;42.56;101195.91;5098710;27;45299;-73
2022/05/15 00:59:18;;;;;;;;;9.67;6.00;;;;;19.71;42.70;101215.38;5097955;27;45477;-71
2022/05/15 01:01:44;;;;;;;;;4.00;3.33;;;;;19.80;42.53;101212.53;5111218;27;46814;-72
2022/05/15 01:04:10;;;;;;;;;6.00;6.00;;;;;19.83;42.18;101212.19;5112224;27;45483;-72
2022/05/15 01:06:36;;;;;;;;;5.33;4.00;;;;;19.71;42.21;101188.41;5117211;27;45397;-73
2022/05/15 01:09:05;;;;;;;;;7.00;5.00;;;;;19.14;42.23;101094.88;5098891;27;45481;-71
2022/05/15 01:11:33;;;;;;;;;7.00;5.00;;;;;19.72;42.27;101200.84;5099511;27;48793;-71
2022/05/15 01:14:05;;;;;;;;;4.00;4.00;;;;;19.59;42.48;101172.91;5106393;27;45337;-72
2022/05/15 01:16:32;;;;;;;;;4.00;4.00;;;;;19.84;42.35;101203.88;5104520;27;45810;-71
2022/05/15 01:18:59;;;;;;;;;2.00;2.00;;;;;19.84;42.17;101193.09;5095249;27;45607;-75
2022/05/15 01:21:34;;;;;;;;;9.67;5.67;;;;;19.73;42.68;101197.13;5100997;27;46394;-72
2022/05/15 01:24:01;;;;;;;;;6.00;4.67;;;;;19.61;42.46;101171.69;5114475;27;45349;-71
2022/05/15 01:26:28;;;;;;;;;4.33;4.00;;;;;19.69;42.29;101174.28;5098153;27;45227;-74
2022/05/15 01:28:54;;;;;;;;;4.67;4.67;;;;;19.51;42.58;101157.66;5093630;27;45398;-72
2022/05/15 01:31:20;;;;;;;;;5.00;5.00;;;;;19.54;42.58;101162.69;5097897;27;48123;-74
2022/05/15 01:33:48;;;;;;;;;3.67;3.67;;;;;19.60;42.74;101178.09;5085488;27;45433;-70
2022/05/15 01:36:16;;;;;;;;;5.33;3.33;;;;;19.68;42.64;101183.38;5079010;27;45340;-73
2022/05/15 01:38:41;;;;;;;;;6.00;6.00;;;;;19.55;42.67;101172.47;5100876;27;45336;-71
2022/05/15 01:41:07;;;;;;;;;4.00;4.00;;;;;19.53;42.86;101171.78;5106451;27;46132;-72
2022/05/15 01:43:33;;;;;;;;;4.67;4.67;;;;;18.74;42.85;101038.88;5091258;27;45359;-72
2022/05/15 01:45:58;;;;;;;;;3.33;3.33;;;;;19.63;43.13;101193.09;5098487;27;45513;-71
2022/05/15 01:48:25;;;;;;;;;5.00;5.00;;;;;19.47;42.91;101150.16;5114450;27;45389;-70
2022/05/15 01:50:51;;;;;;;;;7.00;4.67;;;;;19.27;43.09;101128.38;5083063;27;47282;-73
2022/05/15 01:53:17;;;;;;;;;4.00;4.00;;;;;19.23;42.89;101122.56;5116372;27;45394;-72
2022/05/15 01:55:42;;;;;;;;;5.00;5.00;;;;;19.54;43.24;101168.09;5113625;27;45570;-72
2022/05/15 01:58:10;;;;;;;;;4.00;4.00;;;;;19.38;43.23;101141.34;5106746;27;45466;-71
2022/05/15 02:00:36;;;;;;;;;4.67;4.67;;;;;19.57;42.86;101175.81;5083865;27;47719;-73
2022/05/15 02:03:04;;;;;;;;;4.00;4.00;;;;;19.64;42.92;101186.69;5113431;27;45239;-70
2022/05/15 02:05:29;;;;;;;;;5.33;4.00;;;;;18.72;43.16;101024.78;5098014;27;45525;-72
2022/05/15 02:07:55;;;;;;;;;3.00;3.00;;;;;19.10;42.61;101081.97;5086420;27;45545;-73
2022/05/15 02:10:21;;;;;;;;;5.33;4.00;;;;;19.23;42.95;101102.84;5101711;27;46362;-72
2022/05/15 02:12:46;;;;;;;;;5.67;4.00;;;;;18.12;42.88;100926.31;5097478;27;45477;-71
2022/05/15 02:15:12;;;;;;;;;4.33;4.00;;;;;19.56;43.07;101176.81;5096947;27;45256;-71
2022/05/15 02:17:38;;;;;;;;;5.00;5.00;;;;;19.47;42.83;101145.59;5111892;27;45243;-73
2022/05/15 02:20:04;;;;;;;;;3.67;3.67;;;;;19.27;43.05;101088.78;5108685;27;45358;-70
2022/05/15 02:22:30;;;;;;;;;4.33;4.33;;;;;19.49;43.08;101121.13;5093848;27;45407;-73
2022/05/15 02:24:56;;;;;;;;;6.00;5.00;;;;;19.45;43.50;101118.00;5104388;27;45420;-72
2022/05/15 02:27:22;;;;;;;;;7.33;6.33;;;;;19.54;43.40;101137.59;5105490;27;45207;-71
2022/05/15 02:29:47;;;;;;;;;5.67;4.67;;;;;19.56;43.19;101140.94;5095970;27;46078;-73
2022/05/15 02:32:13;;;;;;;;;8.33;4.33;;;;;19.39;43.43;101118.75;5097565;27;45262;-71
2022/05/15 02:34:38;;;;;;;;;4.67;4.67;;;;;19.19;43.32;101090.75;5105862;27;45212;-74
2022/05/15 02:37:04;;;;;;;;;5.00;4.00;;;;;19.21;43.40;101092.22;5114514;27;45379;-72
2022/05/15 02:39:30;;;;;;;;;8.00;5.67;;;;;19.50;43.30;101137.13;5118260;27;45571;-71
2022/05/15 02:41:55;;;;;;;;;4.00;4.00;;;;;19.57;43.04;101137.22;5119695;27;45328;-72
2022/05/15 02:44:21;;;;;;;;;8.33;7.33;;;;;19.39;42.93;101113.34;5093783;27;45363;-73
2022/05/15 02:46:46;;;;;;;;;4.67;3.00;;;;;19.38;43.09;101104.44;5109561;27;45533;-73
2022/05/15 02:52:00;;;;;;;;;4.00;4.00;;;;;19.37;43.14;101116.25;5060631;27;45319;-76
2022/05/15 02:54:25;;;;;;;;;4.00;4.00;;;;;19.61;42.92;101143.88;5104082;27;45357;-76
2022/05/15 02:56:51;;;;;;;;;6.00;4.00;;;;;18.81;42.63;101013.66;5112838;27;45498;-72
2022/05/15 02:59:16;;;;;;;;;4.33;4.00;;;;;19.63;42.89;101152.63;5091461;27;47264;-71
2022/05/15 03:01:42;;;;;;;;;6.33;5.00;;;;;19.63;42.72;101148.06;5105792;27;45299;-73
2022/05/15 03:04:07;;;;;;;;;6.33;4.67;;;;;19.57;42.29;101135.34;5100451;27;45509;-72
2022/05/15 03:06:33;;;;;;;;;5.00;4.00;;;;;19.09;42.85;101078.44;5101452;27;45230;-73
2022/05/15 03:08:58;;;;;;;;;6.33;4.00;;;;;19.13;42.72;101077.03;5116645;27;45318;-72
2022/05/15 03:11:24;;;;;;;;;3.33;3.33;;;;;19.58;42.83;101144.28;5115866;27;45500;-72
2022/05/15 03:13:49;;;;;;;;;4.33;3.67;;;;;19.20;42.83;101077.09;5085817;27;45479;-72
2022/05/15 03:16:18;;;;;;;;;4.33;4.33;;;;;19.54;42.59;101138.44;5099571;27;45475;-73
2022/05/15 03:18:46;;;;;;;;;2.67;2.67;;;;;19.27;42.78;101096.03;5081510;27;48340;-73
2022/05/15 03:21:28;;;;;;;;;6.33;5.00;;;;;19.34;42.82;101105.84;5119995;27;45437;-71
2022/05/15 03:24:01;;;;;;;;;3.67;3.67;;;;;19.32;43.00;101118.69;5086417;27;45857;-70
2022/05/15 03:26:29;;;;;;;;;3.33;2.33;;;;;19.36;43.44;101162.28;5114619;27;45543;-71
2022/05/15 03:28:55;;;;;;;;;6.00;4.67;;;;;19.04;43.28;101098.91;5087805;27;47730;-73
2022/05/15 03:31:23;;;;;;;;;3.00;3.00;;;;;18.84;43.26;101067.19;5107878;27;45399;-72
2022/05/15 03:33:49;;;;;;;;;4.00;3.00;;;;;17.01;43.29;100760.63;5108086;27;45342;-72
2022/05/15 03:36:15;;;;;;;;;2.00;2.00;;;;;18.66;43.27;101030.94;5101800;27;45417;-73
2022/05/15 03:38:43;;;;;;;;;2.00;1.00;;;;;18.61;43.55;101020.66;5100283;27;46059;-71
2022/05/15 03:41:09;;;;;;;;;4.00;4.00;;;;;19.09;43.48;101108.09;5099023;27;45723;-69
2022/05/15 03:43:35;;;;;;;;;2.67;2.67;;;;;19.19;43.15;101123.09;5081417;27;45546;-72
2022/05/15 03:46:02;;;;;;;;;3.33;3.33;;;;;19.17;43.27;101119.75;5100511;27;45476;-73
2022/05/15 03:48:28;;;;;;;;;3.00;3.00;;;;;18.99;43.38;101088.69;5104052;27;45432;-73
2022/05/15 03:50:53;;;;;;;;;6.00;4.33;;;;;19.18;43.17;101105.25;5103084;27;45244;-72
2022/05/15 03:53:19;;;;;;;;;5.00;5.00;;;;;18.90;43.30;101065.59;5100201;27;45514;-72
2022/05/15 03:55:44;;;;;;;;;4.67;3.00;;;;;19.14;43.10;101102.94;5102689;27;45513;-70
2022/05/15 03:58:10;;;;;;;;;4.33;3.00;;;;;18.26;43.39;100963.13;5093375;27;48125;-71
2022/05/15 04:00:39;;;;;;;;;5.00;3.33;;;;;18.98;43.34;101080.78;5091151;27;46030;-71
2022/05/15 04:03:04;;;;;;;;;2.33;2.33;;;;;18.79;43.79;101058.00;5103712;27;45464;-70
2022/05/15 04:05:30;;;;;;;;;4.00;4.00;;;;;18.06;44.00;100953.97;5083089;27;45536;-72
2022/05/15 04:07:56;;;;;;;;;4.67;3.00;;;;;18.90;43.73;101084.44;5115590;27;45767;-72
2022/05/15 04:10:22;;;;;;;;;4.67;4.67;;;;;18.51;43.94;101012.91;5098298;27;45271;-75
2022/05/15 04:12:48;;;;;;;;;4.00;3.00;;;;;18.68;44.37;101042.34;5083880;27;45341;-73
2022/05/15 04:15:14;;;;;;;;;6.33;4.33;;;;;19.08;44.36;101108.28;5104889;27;45434;-73
2022/05/15 04:17:53;;;;;;;;;5.00;3.67;;;;;19.09;43.96;101107.25;5103961;27;46079;-72
2022/05/15 04:20:22;;;;;;;;;4.33;3.67;;;;;19.05;43.93;101100.59;5098649;27;45399;-71
2022/05/15 04:22:47;;;;;;;;;3.67;3.67;;;;;18.86;44.00;101093.94;5079717;27;45648;-71
2022/05/15 04:25:13;;;;;;;;;4.67;3.00;;;;;18.93;43.93;101100.22;5118665;27;45481;-71
2022/05/15 04:27:40;;;;;;;;;4.00;4.00;;;;;18.95;43.75;101100.88;5102744;27;46610;-73
2022/05/15 04:30:07;;;;;;;;;4.00;4.00;;;;;17.69;43.91;100867.00;5098073;27;45560;-72
2022/05/15 04:32:32;;;;;;;;;3.33;3.33;;;;;19.07;44.24;101098.53;5098800;27;45524;-70
2022/05/15 04:34:57;;;;;;;;;4.67;4.67;;;;;19.01;43.92;101067.75;5079833;27;45387;-73
2022/05/15 04:37:23;;;;;;;;;5.00;5.00;;;;;18.89;43.93;101055.00;5087957;27;47674;-71
2022/05/15 04:39:48;;;;;;;;;3.00;3.00;;;;;19.09;44.29;101093.78;5105522;27;45291;-73
2022/05/15 04:42:13;;;;;;;;;9.33;9.00;;;;;18.86;44.10;101048.16;5103902;27;45366;-71
2022/05/15 04:44:39;;;;;;;;;4.00;3.33;;;;;18.93;43.96;101073.28;5096389;27;45503;-72
2022/05/15 04:47:05;;;;;;;;;6.00;4.00;;;;;19.03;43.79;101094.56;5099823;27;46798;-75
2022/05/15 04:49:30;;;;;;;;;4.00;4.00;;;;;19.00;44.36;101093.03;5103404;27;45433;-73
2022/05/15 04:51:56;;;;;;;;;4.67;4.33;;;;;18.98;44.23;101089.72;5117242;27;45668;-70
2022/05/15 04:54:21;;;;;;;;;6.00;4.00;;;;;18.64;44.21;101030.28;5098445;27;45536;-70
2022/05/15 04:56:47;;;;;;;;;6.00;4.00;;;;;19.04;44.12;101088.13;5098875;27;46748;-69
2022/05/15 04:59:12;;;;;;;;;4.33;3.33;;;;;19.04;43.87;101088.97;5101286;27;45372;-73
2022/05/15 05:01:37;;;;;;;;;6.00;5.67;;;;;19.04;43.64;101082.75;5092169;27;45323;-73
2022/05/15 05:04:03;;;;;;;;;5.33;4.00;;;;;18.95;43.70;101060.44;5104065;27;45285;-72
2022/05/15 05:06:29;;;;;;;;;3.00;3.00;;;;;18.91;43.58;101056.47;5080041;27;47653;-73
2022/05/15 05:08:55;;;;;;;;;3.00;3.00;;;;;19.33;43.48;101114.13;5098436;27;45409;-73
2022/05/15 05:11:21;;;;;;;;;4.33;4.33;;;;;19.34;43.39;101116.63;5113497;27;45373;-72
2022/05/15 05:13:46;;;;;;;;;3.33;3.33;;;;;19.48;42.94;101116.78;5106227;27;45552;-72
2022/05/15 05:16:12;;;;;;;;;4.33;3.67;;;;;19.31;43.05;101073.06;5092401;27;46844;-73
2022/05/15 05:18:38;;;;;;;;;5.33;4.00;;;;;19.44;43.00;101094.75;5092052;27;46087;-73
2022/05/15 05:21:04;;;;;;;;;2.33;2.33;;;;;19.56;42.90;101114.78;5088615;27;45402;-71
2022/05/15 05:23:30;;;;;;;;;3.67;3.67;;;;;19.21;42.71;101061.75;5101644;27;45485;-72
2022/05/15 05:25:55;;;;;;;;;5.33;5.33;;;;;19.58;42.83;101111.91;5109617;27;46271;-72
2022/05/15 05:28:22;;;;;;;;;4.33;3.33;;;;;19.61;42.60;101123.13;5098196;27;45488;-70
2022/05/15 05:30:48;;;;;;;;;8.67;4.33;;;;;19.49;43.02;101094.16;5112721;27;45626;-72
2022/05/15 05:33:13;;;;;;;;;5.00;5.00;;;;;19.53;43.19;101103.53;5095476;27;45617;-71
2022/05/15 05:35:40;;;;;;;;;6.67;3.00;;;;;19.34;43.09;101073.50;5109802;27;46099;-71
2022/05/15 05:38:06;;;;;;;;;4.67;4.67;;;;;19.45;45.56;101080.25;5085864;27;45524;-72
2022/05/15 05:40:32;;;;;;;;;4.67;4.67;;;;;19.41;43.72;101073.53;5095689;27;45488;-72
2022/05/15 05:42:57;;;;;;;;;4.00;4.00;;;;;19.27;42.82;101066.38;5114032;27;45160;-74
2022/05/15 05:45:23;;;;;;;;;2.00;2.00;;;;;19.63;43.10;101123.81;5099144;27;46026;-73
2022/05/15 05:47:54;;;;;;;;;4.00;4.00;;;;;19.68;43.55;101124.03;5079522;27;45502;-75
2022/05/15 05:50:22;;;;;;;;;4.00;4.00;;;;;19.24;43.77;101043.34;5095028;27;45343;-69
2022/05/15 05:52:47;;;;;;;;;5.33;4.00;;;;;19.71;44.40;101112.88;5107454;27;45381;-72
2022/05/15 05:55:15;;;;;;;;;3.00;3.00;;;;;19.77;42.91;101122.03;5117819;27;46484;-71
2022/05/15 05:57:42;;;;;;;;;2.67;2.67;;;;;19.73;42.92;101105.41;5102192;27;45280;-71
2022/05/15 06:00:11;;;;;;;;;4.33;3.00;;;;;19.69;42.47;101087.94;5102611;27;45468;-76
2022/05/15 06:02:37;;;;;;;;;5.00;5.00;;;;;19.83;43.09;101110.47;5079737;27;45610;-75
2022/05/15 06:05:03;;;;;;;;;5.00;3.67;;;;;19.96;43.17;101104.31;5107378;27;46250;-75
2022/05/15 06:07:29;;;;;;;;;5.33;4.00;;;;;20.21;41.99;101110.94;5117830;27;45590;-73
2022/05/15 06:09:55;;;;;;;;;3.00;3.00;;;;;20.74;40.66;101103.13;5118076;27;45266;-70
2022/05/15 06:12:23;;;;;;;;;4.67;4.67;;;;;20.33;40.66;100933.84;5096873;27;45572;-74
2022/05/15 06:14:51;;;;;;;;;4.00;4.00;;;;;22.04;37.87;101094.63;5101220;27;45688;-73
2022/05/15 06:17:21;;;;;;;;;4.00;4.00;;;;;22.49;37.56;101064.09;5096706;27;45520;-77
2022/05/15 06:19:46;;;;;;;;;4.33;4.33;;;;;23.20;36.98;101072.06;5100803;27;45501;-76
2022/05/15 06:22:12;;;;;;;;;4.00;3.00;;;;;24.01;35.08;101112.78;5096070;27;45212;-77
2022/05/15 06:24:37;;;;;;;;;3.33;3.00;;;;;24.58;33.64;101103.41;5093157;27;48883;-72
2022/05/15 06:27:03;;;;;;;;;3.67;3.00;;;;;25.10;32.43;101076.63;5112000;27;45615;-75
2022/05/15 06:29:29;;;;;;;;;5.67;5.00;;;;;25.76;32.60;101105.53;5100315;27;45252;-76
2022/05/15 06:31:55;;;;;;;;;5.00;5.00;;;;;24.94;30.91;100905.03;5101108;27;45533;-73
2022/05/15 06:34:21;;;;;;;;;3.00;3.00;;;;;26.23;30.50;101104.69;5101816;27;46112;-73
2022/05/15 06:36:46;;;;;;;;;5.33;4.33;;;;;25.44;30.95;100998.00;5100521;27;45248;-75
2022/05/15 06:39:12;;;;;;;;;4.00;4.00;;;;;25.69;31.06;101076.78;5101906;27;45569;-74
2022/05/15 06:41:38;;;;;;;;;6.00;4.67;;;;;24.85;32.03;100994.31;5100356;27;45556;-73
2022/05/15 06:44:03;;;;;;;;;4.00;4.00;;;;;25.33;32.07;101110.41;5098454;27;47235;-73
2022/05/15 06:46:29;;;;;;;;;6.67;4.67;;;;;25.21;31.73;101117.69;5100187;27;45238;-73
2022/05/15 06:48:54;;;;;;;;;5.00;4.00;;;;;24.50;32.53;101008.59;5110106;27;45493;-72
2022/05/15 06:51:20;;;;;;;;;4.00;4.00;;;;;25.31;32.38;101131.59;5102903;27;45483;-72
2022/05/15 06:53:47;;;;;;;;;6.00;3.67;;;;;24.88;32.06;101037.38;5102400;27;47256;-74
2022/05/15 06:58:58;;;;;;;;;6.00;5.00;;;;;25.35;32.03;101103.66;5101646;27;45457;-75
2022/05/15 07:01:23;;;;;;;;;5.00;5.00;;;;;25.47;32.34;101107.25;5099842;27;45415;-74
2022/05/15 07:03:49;;;;;;;;;4.00;4.00;;;;;24.85;32.27;100983.44;5099847;27;45911;-72
2022/05/15 07:06:15;;;;;;;;;6.00;4.00;;;;;25.70;31.68;101057.47;5100151;27;45470;-75
2022/05/15 07:08:41;;;;;;;;;3.67;3.67;;;;;26.12;31.61;101054.59;5101951;27;45555;-76
2022/05/15 07:11:06;;;;;;;;;4.00;4.00;;;;;26.60;30.82;101064.34;5099481;27;46069;-74
2022/05/15 07:13:32;;;;;;;;;4.67;4.67;;;;;27.19;30.10;101043.13;5100632;27;45976;-75
2022/05/15 07:15:58;;;;;;;;;6.00;5.00;;;;;27.40;28.36;101023.25;5101312;27;45591;-76
2022/05/15 07:18:24;;;;;;;;;3.00;3.00;;;;;27.55;28.30;100993.47;5100653;27;45419;-72
2022/05/15 07:20:51;;;;;;;;;3.00;3.00;;;;;27.64;28.16;100960.31;5120522;27;45448;-75
2022/05/15 07:23:19;;;;;;;;;3.67;3.67;;;;;28.42;27.74;101041.97;5101154;27;47653;-77
2022/05/15 07:25:44;;;;;;;;;3.00;3.00;;;;;28.85;27.64;101053.16;5117617;27;45288;-75
2022/05/15 07:28:11;;;;;;;;;4.33;4.33;;;;;29.02;27.00;101064.84;5120610;27;45355;-75
2022/05/15 07:30:36;;;;;;;;;4.00;4.00;;;;;29.22;27.54;101058.72;5102246;27;45409;-74
2022/05/15 07:33:02;;;;;;;;;3.00;3.00;;;;;29.49;25.82;101048.59;5089724;27;47265;-72
2022/05/15 07:35:28;;;;;;;;;5.33;5.00;;;;;29.72;26.25;101039.16;5098766;27;45494;-74
2022/05/15 07:37:54;;;;;;;;;4.00;4.00;;;;;29.64;25.31;100974.75;5099832;27;45501;-76
2022/05/15 07:40:20;;;;;;;;;2.00;2.00;;;;;30.34;25.15;101043.91;5109801;27;45287;-72
2022/05/15 07:42:45;;;;;;;;;5.00;4.00;;;;;30.34;23.70;100969.03;5097707;27;48933;-72
2022/05/15 07:45:13;;;;;;;;;6.67;4.67;;;;;30.92;24.37;101036.44;5092558;27;45350;-76
2022/05/15 07:47:39;;;;;;;;;4.00;4.00;;;;;30.91;23.67;101017.50;5097730;27;45423;-75
2022/05/15 07:50:08;;;;;;;;;3.00;3.00;;;;;30.99;23.74;101025.19;5092308;27;45640;-76
2022/05/15 07:52:34;;;;;;;;;4.00;4.00;;;;;31.09;23.41;101004.06;5107589;27;45860;-74
2022/05/15 07:55:00;;;;;;;;;4.00;4.00;;;;;31.31;23.36;101036.78;5098695;27;45325;-75
2022/05/15 07:57:25;;;;;;;;;3.00;3.00;;;;;31.39;23.08;101043.63;5091177;27;45594;-74
2022/05/15 07:59:51;;;;;;;;;4.33;4.33;;;;;31.25;24.08;101034.31;5109044;27;45722;-75
2022/05/15 08:02:18;;;;;;;;;4.33;4.00;;;;;30.65;23.94;100937.03;5085810;27;48228;-76
2022/05/15 08:10:21;;;;;;;;;2.00;2.00;;;;;31.13;23.58;101010.63;5085303;27;45476;-77
2022/05/15 08:12:49;;;;;;;;;4.00;3.00;;;;;31.39;23.06;101013.41;5114647;27;46455;-73
2022/05/15 08:15:15;;;;;;;;;2.67;2.67;;;;;31.16;22.54;100946.09;5111688;27;45465;-74
2022/05/15 08:17:40;;;;;;;;;1.00;1.00;;;;;31.56;22.01;100985.63;5111442;27;45365;-74
2022/05/15 08:25:40;;;;;;;;;2.00;2.00;;;;;32.08;22.00;100977.81;5098852;27;45551;-72
2022/05/15 08:28:06;;;;;;;;;4.00;2.67;;;;;31.66;21.54;100919.66;5099848;27;45519;-72
2022/05/15 08:30:31;;;;;;;;;4.00;2.00;;;;;32.14;21.30;100981.34;5102846;27;45426;-73
2022/05/15 08:32:57;;;;;;;;;2.33;2.33;;;;;32.10;21.97;100985.78;5107332;27;46651;-74
2022/05/15 08:35:23;;;;;;;;;4.00;4.00;;;;;31.28;22.78;100897.22;5079963;27;45348;-80
2022/05/15 08:37:48;;;;;;;;;1.00;1.00;;;;;31.37;22.57;100938.66;5102057;27;45506;-72
2022/05/15 08:40:13;;;;;;;;;3.00;2.67;;;;;30.74;22.73;100842.06;5080746;27;45594;-73
2022/05/15 08:42:56;;;;;;;;;3.00;3.00;;;;;31.68;22.10;100967.75;5079959;27;47530;-76
2022/05/15 08:45:29;;;;;;;;;2.00;2.00;;;;;32.06;23.57;100990.19;5098472;27;45546;-75
2022/05/15 08:48:12;;;;;;;;;4.00;4.00;;;;;32.44;21.87;100976.81;5105899;27;45432;-77
2022/05/15 08:50:48;;;;;;;;;1.33;1.33;;;;;32.37;21.03;100944.13;5119345;27;45270;-75
2022/05/15 08:53:35;;;;;;;;;4.33;3.67;;;;;32.57;21.41;100962.44;5099736;27;46442;-75
2022/05/15 08:56:07;;;;;;;;;4.00;3.00;;;;;32.66;21.22;100967.06;5118527;27;45211;-74
2022/05/15 08:58:47;;;;;;;;;3.00;3.00;;;;;32.84;20.92;100968.34;5108244;27;45587;-76
2022/05/15 09:01:18;;;;;;;;;2.67;2.00;;;;;32.70;20.96;100967.31;5079659;27;45662;-73
2022/05/15 09:03:43;;;;;;;;;2.00;2.00;;;;;32.02;21.26;100917.59;5098084;27;46806;-77
2022/05/15 09:06:38;;;;;;;;;2.00;2.00;;;;;31.74;21.35;100966.66;5100713;27;45446;-74
2022/05/15 09:09:12;;;;;;;;;2.67;2.67;;;;;31.54;22.54;100972.16;5083312;27;45356;-77
2022/05/15 09:11:43;;;;;;;;;4.00;4.00;;;;;31.45;22.22;100938.94;5089734;27;45575;-79
2022/05/15 09:14:32;;;;;;;;;2.33;2.33;;;;;31.46;22.40;100953.50;5100628;27;47239;-78
2022/05/15 09:17:12;;;;;;;;;3.33;3.00;;;;;31.22;22.40;100935.94;5100265;27;45446;-79
2022/05/15 09:19:37;;;;;;;;;3.00;3.00;;;;;31.15;22.82;100936.19;5100458;27;45474;-76
2022/05/15 09:22:04;;;;;;;;;1.67;1.67;;;;;30.54;22.67;100816.25;5100930;27;45333;-77
2022/05/15 09:24:39;;;;;;;;;3.00;3.00;;;;;31.01;22.54;100828.84;5118439;27;45531;-77
2022/05/15 09:27:22;;;;;;;;;3.00;3.00;;;;;32.30;22.73;100949.13;5100114;27;45575;-76
2022/05/15 09:30:09;;;;;;;;;3.00;2.00;;;;;32.57;21.37;100919.22;5100603;27;45510;-76
2022/05/15 09:32:41;;;;;;;;;3.33;2.00;;;;;32.79;20.25;100891.22;5100690;27;45562;-76
2022/05/15 09:35:43;;;;;;;;;3.33;2.00;;;;;33.41;19.50;100932.84;5119075;27;46346;-80
2022/05/15 09:38:27;;;;;;;;;2.00;2.00;;;;;33.22;19.63;100905.16;5099959;27;45633;-76
2022/05/15 09:43:56;;;;;;;;;3.00;2.00;;;;;33.14;19.05;100892.84;5119403;27;45301;-79
2022/05/15 09:46:25;;;;;;;;;1.67;1.67;;;;;33.39;19.26;100952.44;5119227;27;46703;-75
2022/05/15 09:48:54;;;;;;;;;2.33;2.33;;;;;33.45;19.06;100922.91;5100511;27;45333;-78
2022/05/15 09:51:32;;;;;;;;;4.00;3.00;;;;;32.93;19.28;100837.16;5118347;27;45486;-76
2022/05/15 09:53:58;;;;;;;;;3.33;2.00;;;;;33.43;18.03;100912.13;5118530;27;45348;-77
2022/05/15 09:56:26;;;;;;;;;2.33;2.33;;;;;33.67;18.27;100931.47;5099781;27;45551;-77
2022/05/15 09:58:51;;;;;;;;;2.67;2.67;;;;;33.50;18.28;100929.16;5102020;27;45223;-77
2022/05/15 10:01:35;;;;;;;;;3.00;3.00;;;;;33.31;18.75;100906.19;5119131;27;46008;-78
2022/05/15 10:04:23;;;;;;;;;1.33;1.33;;;;;32.62;18.88;100855.03;5119037;27;45198;-77
2022/05/15 10:06:58;;;;;;;;;5.00;4.00;;;;;32.07;19.82;100876.31;5117203;27;45723;-77
2022/05/15 10:09:35;;;;;;;;;2.00;2.00;;;;;31.63;19.76;100863.28;5118110;27;45504;-78
2022/05/15 10:12:08;;;;;;;;;2.00;2.00;;;;;31.16;20.25;100872.75;5118257;27;45244;-78
2022/05/15 10:14:39;;;;;;;;;1.33;1.33;;;;;30.95;21.00;100895.84;5099256;27;45343;-80
2022/05/15 10:17:07;;;;;;;;;2.00;2.00;;;;;30.57;21.49;100892.53;5099479;27;47110;-76
2022/05/15 10:19:46;;;;;;;;;2.00;2.00;;;;;30.43;21.89;100904.28;5099358;27;45329;-76
2022/05/15 10:22:47;;;;;;;;;3.00;3.00;;;;;30.21;21.86;100901.78;5117651;27;45599;-77
2022/05/15 10:25:35;;;;;;;;;2.00;2.00;;;;;29.95;21.89;100881.69;5119533;27;45217;-76
2022/05/15 10:28:15;;;;;;;;;1.00;1.00;;;;;28.77;22.37;100773.41;5099444;27;48149;-79
2022/05/15 10:30:59;;;;;;;;;3.33;2.00;;;;;29.27;23.21;100887.09;5117805;27;45244;-79
2022/05/15 10:33:25;;;;;;;;;3.67;2.00;;;;;28.29;23.96;100779.06;5098780;27;45307;-78
2022/05/15 10:36:09;;;;;;;;;2.00;2.00;;;;;27.78;24.91;100746.56;5099509;27;45523;-80
2022/05/15 10:38:54;;;;;;;;;2.00;2.00;;;;;28.44;24.83;100875.75;5117459;27;46598;-78
2022/05/15 10:41:30;;;;;;;;;2.33;2.33;;;;;27.71;25.84;100805.25;5099178;27;45448;-76
2022/05/15 10:44:28;;;;;;;;;3.67;3.00;;;;;28.22;25.65;100871.38;5099370;27;45346;-78
2022/05/15 10:47:03;;;;;;;;;2.00;2.00;;;;;28.00;25.64;100831.22;5117871;27;45434;-78
2022/05/15 10:49:48;;;;;;;;;2.00;1.33;;;;;28.33;25.38;100870.44;5098784;27;47777;-79
2022/05/15 10:52:35;;;;;;;;;2.67;2.67;;;;;28.27;25.11;100866.00;5099291;27;46277;-80
2022/05/15 10:59:00;;;;;;;;;5.00;3.00;;;;;27.60;25.13;100826.09;5064651;27;45313;-79
2022/05/15 11:01:36;;;;;;;;;1.00;1.00;;;;;27.49;25.17;100792.41;5102122;27;46197;-80
2022/05/15 11:04:14;;;;;;;;;2.00;2.00;;;;;27.91;25.21;100860.13;5102559;27;45269;-79
2022/05/15 11:06:46;;;;;;;;;3.33;2.00;;;;;27.78;25.12;100864.06;5121026;27;45393;-77
2022/05/15 11:09:23;;;;;;;;;2.00;2.00;;;;;27.70;25.62;100858.22;5103294;27;45268;-78
2022/05/15 11:12:31;;;;;;;;;4.33;3.67;;;;;27.67;26.07;100853.28;5102501;27;47594;-78
2022/05/15 11:14:56;;;;;;;;;2.00;2.00;;;;;27.66;25.81;100854.34;5088329;27;46106;-79
2022/05/15 11:17:53;;;;;;;;;3.67;2.00;;;;;27.45;26.16;100821.28;5102555;27;45429;-77
2022/05/15 11:20:46;;;;;;;;;2.33;2.33;;;;;27.66;25.86;100837.97;5103132;27;45445;-78
2022/05/15 11:23:24;;;;;;;;;3.00;3.00;;;;;25.07;26.08;100416.03;5122719;27;46485;-82
2022/05/15 11:26:01;;;;;;;;;3.00;2.67;;;;;27.70;25.55;100829.00;5102825;27;45343;-78
2022/05/15 11:28:38;;;;;;;;;3.00;3.00;;;;;27.02;25.57;100732.00;5103435;27;45343;-78
2022/05/15 11:31:09;;;;;;;;;3.00;1.33;;;;;27.24;25.88;100762.88;5103076;27;45537;-78
2022/05/15 11:33:44;;;;;;;;;3.00;2.00;;;;;27.07;25.91;100736.72;5098746;27;47228;-80
2022/05/15 11:36:29;;;;;;;;;3.00;3.00;;;;;27.50;25.11;100782.31;5099686;27;45543;-79
2022/05/15 11:39:18;;;;;;;;;2.00;2.00;;;;;27.74;24.89;100823.84;5098797;27;45488;-77
2022/05/15 11:41:44;;;;;;;;;3.00;2.67;;;;;27.47;24.96;100761.78;5100725;27;45196;-79
2022/05/15 11:44:19;;;;;;;;;2.00;2.00;;;;;27.68;24.52;100794.81;5098271;27;47918;-78
2022/05/15 11:46:44;;;;;;;;;2.00;2.00;;;;;27.85;24.60;100814.69;5099565;27;45267;-77
2022/05/15 11:49:26;;;;;;;;;2.00;2.00;;;;;27.64;24.51;100791.78;5102501;27;45360;-76
2022/05/15 11:52:03;;;;;;;;;4.00;2.00;;;;;25.05;24.56;100382.81;5100081;27;45570;-81
2022/05/15 11:54:45;;;;;;;;;3.33;2.33;;;;;27.79;24.55;100802.88;5099995;27;45983;-77
2022/05/15 11:57:13;;;;;;;;;1.67;1.67;;;;;25.86;24.85;100507.63;5099296;27;45395;-79
2022/05/15 11:59:55;;;;;;;;;2.00;2.00;;;;;27.35;24.50;100720.13;5098960;27;45229;-80